Terminal Aerodrome Forecast
Issued by NWS Grand Forks, ND

Home | Current Version | Previous Version | Graphics & Text | Print | Product List | Glossary On
Versions: 1 2 3 4 5 6 7 8 9 10 11 12 13 14 15 16 17 18 19
000
FTUS43 KFGF 280400 AAB
TAFGFK
TAF AMD
KGFK 280413Z 2804/2824 16010KT P6SM OVC080
     FM280700 15012KT 5SM -SN OVC015
     FM281300 10007KT P6SM OVC015=

USA.gov is the U.S. government's official web portal to all federal, state and local government web resources and services.